sensor_id;sensor_type;location;lat;lon;timestamp;pressure;altitude;pressure_sealevel;temperature;humidity
6204;BME280;3135;42.602;23.468;2022-07-12T00:00:54;93501.69;;;13.48;82.50
6204;BME280;3135;42.602;23.468;2022-07-12T00:03:19;93502.94;;;13.56;82.45
6204;BME280;3135;42.602;23.468;2022-07-12T00:05:45;93513.16;;;13.54;82.57
6204;BME280;3135;42.602;23.468;2022-07-12T00:08:10;93501.38;;;13.31;81.12
6204;BME280;3135;42.602;23.468;2022-07-12T00:10:36;93504.75;;;13.42;79.87
6204;BME280;3135;42.602;23.468;2022-07-12T00:13:02;93516.50;;;13.46;80.23
6204;BME280;3135;42.602;23.468;2022-07-12T00:15:28;93511.06;;;13.51;79.49
6204;BME280;3135;42.602;23.468;2022-07-12T00:17:54;93510.47;;;13.35;80.04
6204;BME280;3135;42.602;23.468;2022-07-12T00:20:19;93525.63;;;13.45;79.60
6204;BME280;3135;42.602;23.468;2022-07-12T00:22:45;93523.31;;;13.38;80.55
6204;BME280;3135;42.602;23.468;2022-07-12T00:25:12;93510.03;;;13.28;79.63
6204;BME280;3135;42.602;23.468;2022-07-12T00:27:37;93525.44;;;13.41;79.29
6204;BME280;3135;42.602;23.468;2022-07-12T00:30:04;93512.66;;;13.33;79.13
6204;BME280;3135;42.602;23.468;2022-07-12T00:32:30;93502.13;;;13.37;81.31
6204;BME280;3135;42.602;23.468;2022-07-12T00:34:56;93514.03;;;13.49;80.72
6204;BME280;3135;42.602;23.468;2022-07-12T00:37:21;93506.91;;;13.40;80.04
6204;BME280;3135;42.602;23.468;2022-07-12T00:39:48;93521.13;;;13.40;80.25
6204;BME280;3135;42.602;23.468;2022-07-12T00:42:13;93502.53;;;13.25;81.89
6204;BME280;3135;42.602;23.468;2022-07-12T00:44:39;93515.34;;;13.33;82.15
6204;BME280;3135;42.602;23.468;2022-07-12T00:47:05;93493.28;;;13.12;81.22
6204;BME280;3135;42.602;23.468;2022-07-12T00:49:31;93510.94;;;13.18;80.94
6204;BME280;3135;42.602;23.468;2022-07-12T00:51:58;93499.97;;;13.15;80.93
6204;BME280;3135;42.602;23.468;2022-07-12T00:54:24;93488.88;;;13.21;81.34
6204;BME280;3135;42.602;23.468;2022-07-12T00:56:49;93505.47;;;13.28;82.15
6204;BME280;3135;42.602;23.468;2022-07-12T00:59:15;93490.88;;;13.11;82.45
6204;BME280;3135;42.602;23.468;2022-07-12T01:01:41;93474.16;;;13.19;82.86
6204;BME280;3135;42.602;23.468;2022-07-12T01:04:07;93506.25;;;13.29;80.39
6204;BME280;3135;42.602;23.468;2022-07-12T01:06:33;93496.88;;;13.26;81.08
6204;BME280;3135;42.602;23.468;2022-07-12T01:08:59;93488.56;;;13.04;81.50
6204;BME280;3135;42.602;23.468;2022-07-12T01:11:25;93514.13;;;13.20;83.83
6204;BME280;3135;42.602;23.468;2022-07-12T01:13:52;93469.84;;;12.99;81.52
6204;BME280;3135;42.602;23.468;2022-07-12T01:16:19;93497.28;;;13.15;84.86
6204;BME280;3135;42.602;23.468;2022-07-12T01:18:45;93484.72;;;13.10;84.67
6204;BME280;3135;42.602;23.468;2022-07-12T01:21:14;93515.69;;;13.21;84.17
6204;BME280;3135;42.602;23.468;2022-07-12T01:23:41;93514.66;;;13.17;85.51
6204;BME280;3135;42.602;23.468;2022-07-12T01:26:07;93486.94;;;13.03;85.50
6204;BME280;3135;42.602;23.468;2022-07-12T01:28:32;93516.38;;;13.13;82.58
6204;BME280;3135;42.602;23.468;2022-07-12T01:30:59;93481.69;;;12.93;85.86
6204;BME280;3135;42.602;23.468;2022-07-12T01:33:25;93500.09;;;13.04;84.65
6204;BME280;3135;42.602;23.468;2022-07-12T01:35:51;93480.03;;;12.97;86.20
6204;BME280;3135;42.602;23.468;2022-07-12T01:38:17;93469.94;;;12.89;86.30
6204;BME280;3135;42.602;23.468;2022-07-12T01:40:42;93502.34;;;13.16;85.89
6204;BME280;3135;42.602;23.468;2022-07-12T01:43:08;93502.78;;;13.28;87.00
6204;BME280;3135;42.602;23.468;2022-07-12T01:45:33;93495.94;;;13.12;87.88
6204;BME280;3135;42.602;23.468;2022-07-12T01:47:59;93487.84;;;13.17;87.09
6204;BME280;3135;42.602;23.468;2022-07-12T01:50:24;93490.25;;;13.19;88.06
6204;BME280;3135;42.602;23.468;2022-07-12T01:52:51;93494.81;;;13.18;87.37
6204;BME280;3135;42.602;23.468;2022-07-12T01:55:17;93484.66;;;13.15;88.15
6204;BME280;3135;42.602;23.468;2022-07-12T01:57:44;93475.81;;;13.15;88.17
6204;BME280;3135;42.602;23.468;2022-07-12T02:00:11;93499.84;;;13.25;88.63
6204;BME280;3135;42.602;23.468;2022-07-12T02:02:37;93472.53;;;12.99;87.95
6204;BME280;3135;42.602;23.468;2022-07-12T02:05:04;93487.28;;;13.20;89.20
6204;BME280;3135;42.602;23.468;2022-07-12T02:07:31;93484.34;;;13.17;88.04
6204;BME280;3135;42.602;23.468;2022-07-12T02:09:56;93499.53;;;13.32;92.84
6204;BME280;3135;42.602;23.468;2022-07-12T02:12:23;93478.94;;;13.22;88.48
6204;BME280;3135;42.602;23.468;2022-07-12T02:14:49;93506.03;;;13.25;90.83
6204;BME280;3135;42.602;23.468;2022-07-12T02:17:16;93495.88;;;13.22;90.43
6204;BME280;3135;42.602;23.468;2022-07-12T02:19:42;93484.88;;;13.19;91.15
6204;BME280;3135;42.602;23.468;2022-07-12T02:22:08;93494.81;;;13.18;89.61
6204;BME280;3135;42.602;23.468;2022-07-12T02:24:33;93482.84;;;13.11;88.54
6204;BME280;3135;42.602;23.468;2022-07-12T02:26:59;93483.38;;;13.13;90.45
6204;BME280;3135;42.602;23.468;2022-07-12T02:29:24;93487.41;;;13.10;89.38
6204;BME280;3135;42.602;23.468;2022-07-12T02:31:50;93483.63;;;13.11;89.09
6204;BME280;3135;42.602;23.468;2022-07-12T02:34:16;93473.81;;;13.01;89.69
6204;BME280;3135;42.602;23.468;2022-07-12T02:36:41;93480.44;;;13.09;91.51
6204;BME280;3135;42.602;23.468;2022-07-12T02:39:06;93485.75;;;13.14;89.32
6204;BME280;3135;42.602;23.468;2022-07-12T02:41:32;93498.88;;;13.16;90.75
6204;BME280;3135;42.602;23.468;2022-07-12T02:43:59;93500.19;;;13.18;90.02
6204;BME280;3135;42.602;23.468;2022-07-12T02:46:25;93476.81;;;13.00;90.39
6204;BME280;3135;42.602;23.468;2022-07-12T02:48:51;93493.03;;;12.90;90.63
6204;BME280;3135;42.602;23.468;2022-07-12T02:51:17;93477.56;;;12.82;88.40
6204;BME280;3135;42.602;23.468;2022-07-12T02:53:42;93478.84;;;12.84;89.31
6204;BME280;3135;42.602;23.468;2022-07-12T02:56:08;93486.88;;;12.89;88.79
6204;BME280;3135;42.602;23.468;2022-07-12T02:58:34;93507.97;;;12.96;89.89
6204;BME280;3135;42.602;23.468;2022-07-12T03:01:00;93488.84;;;12.78;86.86
6204;BME280;3135;42.602;23.468;2022-07-12T03:03:25;93496.88;;;12.78;88.68
6204;BME280;3135;42.602;23.468;2022-07-12T03:05:51;93494.72;;;12.81;89.38
6204;BME280;3135;42.602;23.468;2022-07-12T03:08:16;93517.84;;;13.00;90.27
6204;BME280;3135;42.602;23.468;2022-07-12T03:10:42;93517.91;;;12.95;87.26
6204;BME280;3135;42.602;23.468;2022-07-12T03:13:07;93520.81;;;12.99;89.27
6204;BME280;3135;42.602;23.468;2022-07-12T03:15:33;93523.03;;;13.16;87.19
6204;BME280;3135;42.602;23.468;2022-07-12T03:18:00;93525.28;;;13.09;88.03
6204;BME280;3135;42.602;23.468;2022-07-12T03:20:26;93534.56;;;13.16;86.73
6204;BME280;3135;42.602;23.468;2022-07-12T03:22:51;93516.69;;;13.07;85.47
6204;BME280;3135;42.602;23.468;2022-07-12T03:25:20;93516.13;;;13.10;83.93
6204;BME280;3135;42.602;23.468;2022-07-12T03:27:46;93527.34;;;13.12;85.11
6204;BME280;3135;42.602;23.468;2022-07-12T03:30:12;93526.44;;;13.21;88.67
6204;BME280;3135;42.602;23.468;2022-07-12T03:32:38;93539.03;;;13.26;86.29
6204;BME280;3135;42.602;23.468;2022-07-12T03:35:04;93542.69;;;13.35;88.61
6204;BME280;3135;42.602;23.468;2022-07-12T03:37:50;93547.06;;;13.26;92.41
6204;BME280;3135;42.602;23.468;2022-07-12T03:40:17;93519.69;;;13.29;91.42
6204;BME280;3135;42.602;23.468;2022-07-12T03:42:43;93523.69;;;13.32;90.49
6204;BME280;3135;42.602;23.468;2022-07-12T03:45:10;93540.53;;;13.37;93.00
6204;BME280;3135;42.602;23.468;2022-07-12T03:47:36;93533.56;;;13.36;93.16
6204;BME280;3135;42.602;23.468;2022-07-12T03:50:04;93521.66;;;13.42;95.14
6204;BME280;3135;42.602;23.468;2022-07-12T03:52:31;93519.78;;;13.62;92.96
6204;BME280;3135;42.602;23.468;2022-07-12T03:54:57;93498.94;;;13.53;92.81
6204;BME280;3135;42.602;23.468;2022-07-12T03:57:22;93517.97;;;13.57;94.00
6204;BME280;3135;42.602;23.468;2022-07-12T03:59:49;93532.41;;;13.80;95.24
6204;BME280;3135;42.602;23.468;2022-07-12T04:02:15;93510.13;;;13.42;95.62
6204;BME280;3135;42.602;23.468;2022-07-12T04:04:40;93531.53;;;13.47;96.30
6204;BME280;3135;42.602;23.468;2022-07-12T04:07:06;93517.31;;;13.65;94.62
6204;BME280;3135;42.602;23.468;2022-07-12T04:09:32;93506.50;;;13.70;95.54
6204;BME280;3135;42.602;23.468;2022-07-12T04:11:57;93527.38;;;13.92;90.91
6204;BME280;3135;42.602;23.468;2022-07-12T04:14:23;93522.00;;;14.11;94.18
6204;BME280;3135;42.602;23.468;2022-07-12T04:16:48;93512.19;;;14.01;93.33
6204;BME280;3135;42.602;23.468;2022-07-12T04:19:14;93534.81;;;14.33;89.89
6204;BME280;3135;42.602;23.468;2022-07-12T04:21:39;93541.44;;;14.41;88.12
6204;BME280;3135;42.602;23.468;2022-07-12T04:24:05;93556.97;;;14.44;88.96
6204;BME280;3135;42.602;23.468;2022-07-12T04:26:31;93553.16;;;14.31;87.28
6204;BME280;3135;42.602;23.468;2022-07-12T04:28:57;93544.34;;;14.25;88.36
6204;BME280;3135;42.602;23.468;2022-07-12T04:31:23;93558.38;;;14.41;86.63
6204;BME280;3135;42.602;23.468;2022-07-12T04:33:49;93557.59;;;14.73;86.99
6204;BME280;3135;42.602;23.468;2022-07-12T04:36:14;93562.09;;;14.78;86.35
6204;BME280;3135;42.602;23.468;2022-07-12T04:38:40;93560.44;;;14.63;86.98
6204;BME280;3135;42.602;23.468;2022-07-12T04:41:05;93560.19;;;14.78;86.06
6204;BME280;3135;42.602;23.468;2022-07-12T04:43:30;93559.75;;;14.71;87.12
6204;BME280;3135;42.602;23.468;2022-07-12T04:45:56;93554.91;;;14.73;81.64
6204;BME280;3135;42.602;23.468;2022-07-12T04:48:29;93566.06;;;14.80;86.10
6204;BME280;3135;42.602;23.468;2022-07-12T04:50:55;93571.16;;;14.82;86.73
6204;BME280;3135;42.602;23.468;2022-07-12T04:53:20;93571.66;;;14.84;88.09
6204;BME280;3135;42.602;23.468;2022-07-12T04:55:46;93562.25;;;14.81;89.76
6204;BME280;3135;42.602;23.468;2022-07-12T04:58:11;93563.09;;;14.82;89.47
6204;BME280;3135;42.602;23.468;2022-07-12T05:00:37;93543.53;;;14.76;90.91
6204;BME280;3135;42.602;23.468;2022-07-12T05:03:02;93572.88;;;15.19;88.57
6204;BME280;3135;42.602;23.468;2022-07-12T05:05:28;93581.84;;;15.28;87.96
6204;BME280;3135;42.602;23.468;2022-07-12T05:07:53;93552.63;;;15.08;88.54
6204;BME280;3135;42.602;23.468;2022-07-12T05:10:18;93568.47;;;15.09;89.68
6204;BME280;3135;42.602;23.468;2022-07-12T05:12:44;93550.84;;;15.17;89.36
6204;BME280;3135;42.602;23.468;2022-07-12T05:15:09;93560.94;;;15.39;89.21
6204;BME280;3135;42.602;23.468;2022-07-12T05:17:35;93573.59;;;15.66;86.35
6204;BME280;3135;42.602;23.468;2022-07-12T05:20:00;93550.66;;;15.69;88.11
6204;BME280;3135;42.602;23.468;2022-07-12T05:22:26;93571.47;;;15.91;86.31
6204;BME280;3135;42.602;23.468;2022-07-12T05:24:51;93568.06;;;15.85;85.12
6204;BME280;3135;42.602;23.468;2022-07-12T05:27:16;93577.13;;;16.03;84.45
6204;BME280;3135;42.602;23.468;2022-07-12T05:29:42;93561.28;;;16.24;81.04
6204;BME280;3135;42.602;23.468;2022-07-12T05:32:08;93585.28;;;16.48;83.32
6204;BME280;3135;42.602;23.468;2022-07-12T05:34:33;93586.81;;;16.63;79.57
6204;BME280;3135;42.602;23.468;2022-07-12T05:36:59;93578.16;;;16.29;82.64
6204;BME280;3135;42.602;23.468;2022-07-12T05:39:24;93568.94;;;16.30;84.16
6204;BME280;3135;42.602;23.468;2022-07-12T05:41:50;93565.47;;;16.52;82.27
6204;BME280;3135;42.602;23.468;2022-07-12T05:44:15;93576.06;;;16.71;79.47
6204;BME280;3135;42.602;23.468;2022-07-12T05:46:42;93577.53;;;17.00;77.84
6204;BME280;3135;42.602;23.468;2022-07-12T05:49:08;93578.53;;;17.04;79.25
6204;BME280;3135;42.602;23.468;2022-07-12T05:51:33;93589.50;;;17.47;77.24
6204;BME280;3135;42.602;23.468;2022-07-12T05:54:17;93576.47;;;17.49;74.28
6204;BME280;3135;42.602;23.468;2022-07-12T05:56:43;93581.06;;;17.80;75.21
6204;BME280;3135;42.602;23.468;2022-07-12T05:59:08;93584.22;;;17.82;75.63
6204;BME280;3135;42.602;23.468;2022-07-12T06:01:34;93572.31;;;17.92;73.08
6204;BME280;3135;42.602;23.468;2022-07-12T06:04:00;93581.28;;;18.18;71.77
6204;BME280;3135;42.602;23.468;2022-07-12T06:06:25;93584.44;;;18.20;70.32
6204;BME280;3135;42.602;23.468;2022-07-12T06:08:51;93580.00;;;18.42;67.24
6204;BME280;3135;42.602;23.468;2022-07-12T06:11:17;93579.19;;;18.24;69.35
6204;BME280;3135;42.602;23.468;2022-07-12T06:13:42;93579.97;;;18.68;69.11
6204;BME280;3135;42.602;23.468;2022-07-12T06:16:07;93582.38;;;18.95;66.81
6204;BME280;3135;42.602;23.468;2022-07-12T06:18:35;93586.91;;;19.29;65.41
6204;BME280;3135;42.602;23.468;2022-07-12T06:21:01;93584.81;;;19.35;65.37
6204;BME280;3135;42.602;23.468;2022-07-12T06:23:26;93578.53;;;19.05;65.57
6204;BME280;3135;42.602;23.468;2022-07-12T06:25:52;93570.56;;;19.47;62.09
6204;BME280;3135;42.602;23.468;2022-07-12T06:28:17;93575.97;;;19.55;61.44
6204;BME280;3135;42.602;23.468;2022-07-12T06:30:43;93573.03;;;19.78;60.75
6204;BME280;3135;42.602;23.468;2022-07-12T06:33:08;93579.16;;;20.16;59.75
6204;BME280;3135;42.602;23.468;2022-07-12T06:35:33;93563.59;;;20.05;58.36
6204;BME280;3135;42.602;23.468;2022-07-12T06:37:59;93582.41;;;20.10;60.76
6204;BME280;3135;42.602;23.468;2022-07-12T06:40:25;93588.25;;;20.21;58.26
6204;BME280;3135;42.602;23.468;2022-07-12T06:42:50;93576.44;;;20.16;57.43
6204;BME280;3135;42.602;23.468;2022-07-12T06:45:16;93563.22;;;20.36;57.45
6204;BME280;3135;42.602;23.468;2022-07-12T06:47:41;93561.28;;;20.36;60.35
6204;BME280;3135;42.602;23.468;2022-07-12T06:50:07;93576.28;;;20.63;57.69
6204;BME280;3135;42.602;23.468;2022-07-12T06:52:33;93567.19;;;20.59;56.24
6204;BME280;3135;42.602;23.468;2022-07-12T06:54:59;93564.50;;;20.59;56.50
6204;BME280;3135;42.602;23.468;2022-07-12T06:57:25;93569.41;;;20.66;58.03
6204;BME280;3135;42.602;23.468;2022-07-12T06:59:56;93585.94;;;21.06;55.19
6204;BME280;3135;42.602;23.468;2022-07-12T07:02:21;93572.63;;;21.13;54.06
6204;BME280;3135;42.602;23.468;2022-07-12T07:04:47;93577.97;;;20.89;54.74
6204;BME280;3135;42.602;23.468;2022-07-12T07:07:12;93568.28;;;20.79;56.07
6204;BME280;3135;42.602;23.468;2022-07-12T07:09:38;93561.84;;;21.17;55.12
6204;BME280;3135;42.602;23.468;2022-07-12T07:12:04;93563.56;;;21.22;55.52
6204;BME280;3135;42.602;23.468;2022-07-12T07:14:29;93582.34;;;21.60;53.74
6204;BME280;3135;42.602;23.468;2022-07-12T07:16:55;93588.59;;;21.85;53.23
6204;BME280;3135;42.602;23.468;2022-07-12T07:19:21;93580.09;;;21.99;50.87
6204;BME280;3135;42.602;23.468;2022-07-12T07:21:48;93580.06;;;22.11;50.61
6204;BME280;3135;42.602;23.468;2022-07-12T07:24:13;93569.66;;;22.01;51.21
6204;BME280;3135;42.602;23.468;2022-07-12T07:26:39;93578.47;;;22.34;51.80
6204;BME280;3135;42.602;23.468;2022-07-12T07:29:04;93581.53;;;22.33;50.38
6204;BME280;3135;42.602;23.468;2022-07-12T07:31:59;93583.25;;;22.37;50.50
6204;BME280;3135;42.602;23.468;2022-07-12T07:34:24;93585.16;;;22.49;48.43
6204;BME280;3135;42.602;23.468;2022-07-12T07:36:51;93585.97;;;22.25;48.85
6204;BME280;3135;42.602;23.468;2022-07-12T07:39:16;93579.41;;;22.26;49.21
6204;BME280;3135;42.602;23.468;2022-07-12T07:41:42;93579.09;;;22.56;47.01
6204;BME280;3135;42.602;23.468;2022-07-12T07:44:07;93572.03;;;22.27;47.15
6204;BME280;3135;42.602;23.468;2022-07-12T07:46:33;93563.34;;;22.77;47.12
6204;BME280;3135;42.602;23.468;2022-07-12T07:48:58;93568.88;;;23.37;48.79
6204;BME280;3135;42.602;23.468;2022-07-12T07:51:24;93561.69;;;23.01;47.53
6204;BME280;3135;42.602;23.468;2022-07-12T07:53:49;93578.63;;;23.06;48.04
6204;BME280;3135;42.602;23.468;2022-07-12T07:56:15;93573.47;;;23.33;45.38
6204;BME280;3135;42.602;23.468;2022-07-12T07:58:40;93568.19;;;23.56;43.96
6204;BME280;3135;42.602;23.468;2022-07-12T08:01:05;93570.03;;;23.52;42.68
6204;BME280;3135;42.602;23.468;2022-07-12T08:03:31;93562.66;;;23.36;43.85
6204;BME280;3135;42.602;23.468;2022-07-12T08:05:56;93570.63;;;23.73;43.18
6204;BME280;3135;42.602;23.468;2022-07-12T08:08:24;93569.09;;;23.60;45.94
6204;BME280;3135;42.602;23.468;2022-07-12T08:10:50;93576.47;;;23.59;44.83
6204;BME280;3135;42.602;23.468;2022-07-12T08:13:16;93559.81;;;23.17;43.26
6204;BME280;3135;42.602;23.468;2022-07-12T08:15:41;93568.84;;;23.65;42.78
6204;BME280;3135;42.602;23.468;2022-07-12T08:18:07;93572.88;;;24.18;40.64
6204;BME280;3135;42.602;23.468;2022-07-12T08:20:33;93573.16;;;23.66;41.67
6204;BME280;3135;42.602;23.468;2022-07-12T08:22:58;93557.91;;;23.49;42.12
6204;BME280;3135;42.602;23.468;2022-07-12T08:25:24;93559.00;;;23.76;41.74
6204;BME280;3135;42.602;23.468;2022-07-12T08:27:50;93557.13;;;23.80;41.67
6204;BME280;3135;42.602;23.468;2022-07-12T08:30:16;93539.66;;;23.06;42.82
6204;BME280;3135;42.602;23.468;2022-07-12T08:32:45;93530.53;;;23.30;43.65
6204;BME280;3135;42.602;23.468;2022-07-12T08:35:11;93546.91;;;23.61;41.04
6204;BME280;3135;42.602;23.468;2022-07-12T08:37:37;93563.66;;;23.91;40.33
6204;BME280;3135;42.602;23.468;2022-07-12T08:40:04;93546.03;;;23.57;42.39
6204;BME280;3135;42.602;23.468;2022-07-12T08:42:31;93541.44;;;23.45;42.57
6204;BME280;3135;42.602;23.468;2022-07-12T08:44:57;93560.13;;;23.00;41.70
6204;BME280;3135;42.602;23.468;2022-07-12T08:47:23;93550.94;;;23.36;42.06
6204;BME280;3135;42.602;23.468;2022-07-12T08:52:44;93550.84;;;23.32;42.31
6204;BME280;3135;42.602;23.468;2022-07-12T08:55:32;93551.22;;;23.94;39.24
6204;BME280;3135;42.602;23.468;2022-07-12T08:58:05;93554.06;;;23.66;39.01
6204;BME280;3135;42.602;23.468;2022-07-12T09:00:39;93552.22;;;23.70;39.56
6204;BME280;3135;42.602;23.468;2022-07-12T09:03:04;93534.47;;;24.46;39.50
6204;BME280;3135;42.602;23.468;2022-07-12T09:05:33;93535.19;;;24.82;37.12
6204;BME280;3135;42.602;23.468;2022-07-12T09:08:09;93548.56;;;25.26;36.78
6204;BME280;3135;42.602;23.468;2022-07-12T09:13:16;93535.75;;;24.17;39.46
6204;BME280;3135;42.602;23.468;2022-07-12T09:15:42;93539.97;;;24.66;38.76
6204;BME280;3135;42.602;23.468;2022-07-12T09:18:07;93539.38;;;25.15;37.97
6204;BME280;3135;42.602;23.468;2022-07-12T09:20:42;93543.44;;;25.05;36.80
6204;BME280;3135;42.602;23.468;2022-07-12T09:23:15;93539.66;;;25.10;36.22
6204;BME280;3135;42.602;23.468;2022-07-12T09:25:45;93515.38;;;25.28;35.43
6204;BME280;3135;42.602;23.468;2022-07-12T09:28:10;93516.56;;;25.07;37.48
6204;BME280;3135;42.602;23.468;2022-07-12T09:30:47;93528.28;;;24.88;37.09
6204;BME280;3135;42.602;23.468;2022-07-12T09:33:17;93525.75;;;24.41;37.15
6204;BME280;3135;42.602;23.468;2022-07-12T09:36:04;93524.28;;;24.28;38.09
6204;BME280;3135;42.602;23.468;2022-07-12T09:38:36;93536.69;;;24.60;37.74
6204;BME280;3135;42.602;23.468;2022-07-12T09:41:03;93536.88;;;25.29;36.15
6204;BME280;3135;42.602;23.468;2022-07-12T09:43:29;93527.72;;;25.18;35.69
6204;BME280;3135;42.602;23.468;2022-07-12T09:45:55;93532.72;;;25.81;34.81
6204;BME280;3135;42.602;23.468;2022-07-12T09:48:21;93523.47;;;25.89;35.41
6204;BME280;3135;42.602;23.468;2022-07-12T09:50:49;93527.56;;;25.76;35.03
6204;BME280;3135;42.602;23.468;2022-07-12T09:53:38;93535.63;;;25.23;36.40
6204;BME280;3135;42.602;23.468;2022-07-12T09:56:10;93515.19;;;24.59;37.35
6204;BME280;3135;42.602;23.468;2022-07-12T09:59:00;93532.59;;;25.28;36.57
6204;BME280;3135;42.602;23.468;2022-07-12T10:01:24;93528.19;;;25.92;34.68
6204;BME280;3135;42.602;23.468;2022-07-12T10:03:51;93527.63;;;26.59;35.18
6204;BME280;3135;42.602;23.468;2022-07-12T10:06:27;93524.59;;;26.15;32.96
6204;BME280;3135;42.602;23.468;2022-07-12T10:08:54;93528.00;;;26.61;33.19
6204;BME280;3135;42.602;23.468;2022-07-12T10:11:20;93520.69;;;26.69;31.94
6204;BME280;3135;42.602;23.468;2022-07-12T10:13:47;93510.78;;;26.94;32.15
6204;BME280;3135;42.602;23.468;2022-07-12T10:16:15;93520.59;;;27.29;30.61
6204;BME280;3135;42.602;23.468;2022-07-12T10:18:41;93501.19;;;27.48;32.00
6204;BME280;3135;42.602;23.468;2022-07-12T10:21:20;93518.88;;;27.55;31.85
6204;BME280;3135;42.602;23.468;2022-07-12T10:23:47;93526.41;;;26.90;31.37
6204;BME280;3135;42.602;23.468;2022-07-12T10:31:33;93501.38;;;26.62;32.16
6204;BME280;3135;42.602;23.468;2022-07-12T10:34:11;93522.75;;;26.79;31.79
6204;BME280;3135;42.602;23.468;2022-07-12T10:39:24;93509.38;;;26.44;31.16
6204;BME280;3135;42.602;23.468;2022-07-12T10:44:35;93498.47;;;26.81;31.27
6204;BME280;3135;42.602;23.468;2022-07-12T10:47:01;93515.94;;;26.09;30.77
6204;BME280;3135;42.602;23.468;2022-07-12T10:49:29;93526.31;;;26.23;31.77
6204;BME280;3135;42.602;23.468;2022-07-12T10:57:44;93485.25;;;27.24;30.12
6204;BME280;3135;42.602;23.468;2022-07-12T11:00:11;93503.63;;;27.61;30.49
6204;BME280;3135;42.602;23.468;2022-07-12T11:02:38;93496.22;;;27.24;28.69
6204;BME280;3135;42.602;23.468;2022-07-12T11:05:04;93501.91;;;27.86;28.31
6204;BME280;3135;42.602;23.468;2022-07-12T11:07:30;93502.28;;;27.85;29.61
6204;BME280;3135;42.602;23.468;2022-07-12T11:09:56;93486.03;;;27.69;28.52
6204;BME280;3135;42.602;23.468;2022-07-12T11:12:29;93506.19;;;26.68;28.83
6204;BME280;3135;42.602;23.468;2022-07-12T11:14:55;93504.72;;;26.44;30.63
6204;BME280;3135;42.602;23.468;2022-07-12T11:17:33;93514.19;;;26.50;30.48
6204;BME280;3135;42.602;23.468;2022-07-12T11:20:05;93505.22;;;26.27;29.90
6204;BME280;3135;42.602;23.468;2022-07-12T11:22:32;93482.03;;;26.81;29.34
6204;BME280;3135;42.602;23.468;2022-07-12T11:24:58;93503.78;;;27.34;30.65
6204;BME280;3135;42.602;23.468;2022-07-12T11:27:26;93495.34;;;26.79;30.42
6204;BME280;3135;42.602;23.468;2022-07-12T11:29:58;93484.16;;;27.32;30.29
6204;BME280;3135;42.602;23.468;2022-07-12T11:32:42;93482.75;;;27.49;28.71
6204;BME280;3135;42.602;23.468;2022-07-12T11:35:20;93486.91;;;27.32;29.24
6204;BME280;3135;42.602;23.468;2022-07-12T11:37:54;93479.53;;;27.02;30.26
6204;BME280;3135;42.602;23.468;2022-07-12T11:40:27;93482.31;;;27.06;31.45
6204;BME280;3135;42.602;23.468;2022-07-12T11:42:58;93480.25;;;26.62;31.80
6204;BME280;3135;42.602;23.468;2022-07-12T11:45:28;93489.94;;;27.23;31.83
6204;BME280;3135;42.602;23.468;2022-07-12T11:47:56;93474.88;;;27.07;30.11
6204;BME280;3135;42.602;23.468;2022-07-12T11:50:22;93481.38;;;26.91;31.05
6204;BME280;3135;42.602;23.468;2022-07-12T11:52:48;93474.59;;;26.82;31.03
6204;BME280;3135;42.602;23.468;2022-07-12T11:55:14;93470.88;;;26.63;32.53
6204;BME280;3135;42.602;23.468;2022-07-12T11:57:39;93465.91;;;26.76;33.15
6204;BME280;3135;42.602;23.468;2022-07-12T12:00:19;93475.13;;;26.94;32.27
6204;BME280;3135;42.602;23.468;2022-07-12T12:02:45;93489.63;;;27.32;31.90
6204;BME280;3135;42.602;23.468;2022-07-12T12:05:11;93475.69;;;27.51;30.37
6204;BME280;3135;42.602;23.468;2022-07-12T12:07:37;93485.97;;;28.10;32.04
6204;BME280;3135;42.602;23.468;2022-07-12T12:10:15;93483.13;;;28.58;28.76
6204;BME280;3135;42.602;23.468;2022-07-12T12:12:52;93466.19;;;27.86;29.32
6204;BME280;3135;42.602;23.468;2022-07-12T12:15:19;93473.16;;;27.73;29.22
6204;BME280;3135;42.602;23.468;2022-07-12T12:17:54;93477.41;;;27.67;29.20
6204;BME280;3135;42.602;23.468;2022-07-12T12:20:29;93481.09;;;27.04;30.41
6204;BME280;3135;42.602;23.468;2022-07-12T12:22:56;93461.84;;;26.96;31.07
6204;BME280;3135;42.602;23.468;2022-07-12T12:25:23;93459.13;;;27.41;31.09
6204;BME280;3135;42.602;23.468;2022-07-12T12:27:54;93462.94;;;27.25;31.29
6204;BME280;3135;42.602;23.468;2022-07-12T12:30:20;93461.69;;;27.64;32.55
6204;BME280;3135;42.602;23.468;2022-07-12T12:32:54;93466.63;;;27.44;30.41
6204;BME280;3135;42.602;23.468;2022-07-12T12:35:38;93471.84;;;27.15;30.62
6204;BME280;3135;42.602;23.468;2022-07-12T12:38:11;93456.38;;;27.89;31.30
6204;BME280;3135;42.602;23.468;2022-07-12T12:40:38;93465.50;;;28.03;30.16
6204;BME280;3135;42.602;23.468;2022-07-12T12:43:10;93464.75;;;28.07;29.78
6204;BME280;3135;42.602;23.468;2022-07-12T12:45:57;93475.06;;;26.87;31.31
6204;BME280;3135;42.602;23.468;2022-07-12T12:48:24;93469.03;;;27.49;32.38
6204;BME280;3135;42.602;23.468;2022-07-12T12:50:52;93474.34;;;27.72;30.54
6204;BME280;3135;42.602;23.468;2022-07-12T12:53:22;93471.03;;;28.07;31.15
6204;BME280;3135;42.602;23.468;2022-07-12T12:55:52;93465.44;;;28.51;30.19
6204;BME280;3135;42.602;23.468;2022-07-12T12:58:20;93469.88;;;28.88;29.44
6204;BME280;3135;42.602;23.468;2022-07-12T13:00:48;93475.34;;;28.08;29.50
6204;BME280;3135;42.602;23.468;2022-07-12T13:03:16;93478.75;;;27.43;31.05
6204;BME280;3135;42.602;23.468;2022-07-12T13:05:45;93474.47;;;27.45;31.23
6204;BME280;3135;42.602;23.468;2022-07-12T13:08:12;93466.63;;;27.44;31.04
6204;BME280;3135;42.602;23.468;2022-07-12T13:10:39;93479.53;;;27.40;30.56
6204;BME280;3135;42.602;23.468;2022-07-12T13:13:05;93465.38;;;26.97;30.87
6204;BME280;3135;42.602;23.468;2022-07-12T13:15:31;93463.09;;;27.06;32.69
6204;BME280;3135;42.602;23.468;2022-07-12T13:17:57;93470.06;;;26.96;30.22
6204;BME280;3135;42.602;23.468;2022-07-12T13:20:24;93463.22;;;27.58;30.03
6204;BME280;3135;42.602;23.468;2022-07-12T13:22:51;93468.75;;;28.20;29.54
6204;BME280;3135;42.602;23.468;2022-07-12T13:25:16;93456.44;;;28.62;28.40
6204;BME280;3135;42.602;23.468;2022-07-12T13:27:42;93463.56;;;28.77;28.42
6204;BME280;3135;42.602;23.468;2022-07-12T13:30:10;93447.44;;;28.02;30.76
6204;BME280;3135;42.602;23.468;2022-07-12T13:32:37;93456.00;;;27.01;31.49